Time;durP1;ratioP1;P1;durP2;ratioP2;P2;SDS_P1;SDS_P2;PMS_P1;PMS_P2;Temp;Humidity;BMP_temperature;BMP_pressure;BME280_temperature;BME280_humidity;BME280_pressure;Samples;Min_cycle;Max_cycle;Signal;HPM_P1;HPM_P2
2021/09/17 00:01:14;;;;;;;0.40;0.10;;;;;;;20.98;69.39;99890.82;113688;1192;138358;-73
2021/09/17 00:03:40;;;;;;;0.40;0.10;;;;;;;20.92;69.44;99892.02;113858;1193;94418;-73
2021/09/17 00:06:08;;;;;;;0.40;0.10;;;;;;;20.88;69.45;99887.20;113651;1193;137749;-73
2021/09/17 00:08:34;;;;;;;0.40;0.00;;;;;;;20.84;69.49;99887.00;113940;1193;93928;-73
2021/09/17 00:11:01;;;;;;;0.40;0.10;;;;;;;20.79;69.51;99890.45;113803;1193;94903;-73
2021/09/17 00:13:28;;;;;;;0.40;0.10;;;;;;;20.71;69.62;99883.67;113870;1193;136973;-74
2021/09/17 00:15:55;;;;;;;0.40;0.10;;;;;;;20.73;69.64;99881.92;113955;1193;94378;-74
2021/09/17 00:18:22;;;;;;;0.40;0.10;;;;;;;20.80;69.29;99882.59;113736;1193;137623;-73
2021/09/17 00:20:48;;;;;;;0.40;0.10;;;;;;;20.85;69.13;99881.84;113634;1193;93887;-73
2021/09/17 00:23:15;;;;;;;0.40;0.10;;;;;;;20.77;69.06;99882.67;113883;1192;93968;-74
2021/09/17 00:25:42;;;;;;;0.40;0.10;;;;;;;20.69;69.40;99881.65;113554;1193;137615;-74
2021/09/17 00:28:09;;;;;;;0.40;0.10;;;;;;;20.67;69.52;99879.95;113747;1193;94046;-74
2021/09/17 00:30:35;;;;;;;0.40;0.10;;;;;;;20.59;69.32;99877.85;113829;1193;137705;-73
2021/09/17 00:33:03;;;;;;;0.40;0.10;;;;;;;20.55;69.67;99875.46;114021;1193;93898;-73
2021/09/17 00:35:30;;;;;;;0.40;0.10;;;;;;;20.60;69.63;99870.80;113822;1193;93974;-73
2021/09/17 00:37:57;;;;;;;0.40;0.10;;;;;;;20.65;69.27;99873.09;113867;1192;138077;-73
2021/09/17 00:40:25;;;;;;;0.40;0.10;;;;;;;20.60;69.10;99877.57;114009;1193;93956;-73
2021/09/17 00:42:52;;;;;;;0.40;0.10;;;;;;;20.49;69.27;99879.50;113813;1192;136635;-73
2021/09/17 00:45:18;;;;;;;0.40;0.10;;;;;;;20.47;69.28;99879.55;113800;1192;93967;-73
2021/09/17 00:47:45;;;;;;;0.40;0.10;;;;;;;20.45;69.40;99876.98;113869;1193;93952;-73
2021/09/17 00:50:14;;;;;;;0.40;0.10;;;;;;;20.48;69.47;99874.88;113615;1193;137964;-73
2021/09/17 00:52:42;;;;;;;0.40;0.10;;;;;;;20.55;69.11;99874.36;113746;1193;93952;-73
2021/09/17 00:55:10;;;;;;;0.40;0.00;;;;;;;20.56;69.19;99873.40;113542;1193;137169;-73
2021/09/17 00:57:37;;;;;;;0.40;0.10;;;;;;;20.60;68.86;99868.60;113838;1193;93948;-74
2021/09/17 01:00:15;;;;;;;0.40;0.00;;;;;;;20.60;68.76;99865.32;113909;1193;136880;-73
2021/09/17 01:02:50;;;;;;;0.40;0.10;;;;;;;20.55;68.66;99862.48;114481;1193;93872;-75
2021/09/17 01:05:19;;;;;;;0.40;0.10;;;;;;;20.63;68.35;99860.44;114439;1192;93465;-76
2021/09/17 01:07:48;;;;;;;0.40;0.10;;;;;;;20.60;68.09;99853.08;114602;1193;136449;-75
2021/09/17 01:10:15;;;;;;;0.40;0.10;;;;;;;20.59;67.95;99855.73;114405;1193;107024;-75
2021/09/17 01:12:42;;;;;;;0.40;0.10;;;;;;;20.58;68.00;99852.30;114513;1193;137704;-75
2021/09/17 01:15:11;;;;;;;0.40;0.10;;;;;;;20.59;67.67;99857.70;114479;1193;93967;-75
2021/09/17 01:17:40;;;;;;;0.40;0.10;;;;;;;20.48;67.71;99856.67;114481;1192;108075;-75
2021/09/17 01:20:14;;;;;;;0.40;0.10;;;;;;;20.46;67.77;99858.48;114158;1193;137396;-74
2021/09/17 01:22:41;;;;;;;0.40;0.10;;;;;;;20.50;67.68;99858.20;114410;1192;93897;-74
2021/09/17 01:25:10;;;;;;;0.40;0.10;;;;;;;20.53;67.40;99857.73;114160;1193;136722;-75
2021/09/17 01:27:52;;;;;;;0.40;0.10;;;;;;;20.53;67.28;99858.44;114084;1193;108416;-74
2021/09/17 01:30:19;;;;;;;0.40;0.10;;;;;;;20.49;67.28;99853.53;114272;1192;136154;-75
2021/09/17 01:32:47;;;;;;;0.40;0.10;;;;;;;20.47;67.41;99850.26;114269;1193;94041;-75
2021/09/17 01:35:17;;;;;;;0.40;0.10;;;;;;;20.48;67.54;99849.84;114200;1192;93521;-74
2021/09/17 01:37:50;;;;;;;0.40;0.10;;;;;;;20.52;67.28;99848.96;114436;1192;137730;-75
2021/09/17 01:40:18;;;;;;;0.40;0.10;;;;;;;20.52;66.95;99848.80;114258;1193;107061;-74
2021/09/17 01:42:46;;;;;;;0.40;0.10;;;;;;;20.49;66.84;99852.25;114449;1192;136169;-74
2021/09/17 01:45:15;;;;;;;0.40;0.10;;;;;;;20.42;66.93;99851.59;114105;1193;94385;-74
2021/09/17 01:47:52;;;;;;;0.40;0.10;;;;;;;20.39;66.76;99849.08;114143;1193;107554;-75
2021/09/17 01:50:22;;;;;;;0.40;0.10;;;;;;;20.38;66.76;99847.56;114075;1193;137074;-74
2021/09/17 01:52:49;;;;;;;0.40;0.10;;;;;;;20.41;66.92;99847.70;114494;1193;93894;-74
2021/09/17 01:55:17;;;;;;;0.40;0.10;;;;;;;20.41;66.89;99849.52;114189;1193;136834;-74
2021/09/17 01:57:54;;;;;;;0.40;0.10;;;;;;;20.47;66.71;99844.55;114384;1192;108820;-74
2021/09/17 02:00:25;;;;;;;0.40;0.10;;;;;;;20.53;66.48;99844.98;114545;1193;136832;-75
2021/09/17 02:03:01;;;;;;;0.40;0.10;;;;;;;20.47;66.21;99848.63;114262;1193;93867;-74
2021/09/17 02:05:40;;;;;;;0.40;0.10;;;;;;;20.43;66.26;99844.13;114602;1193;93974;-74
2021/09/17 02:08:07;;;;;;;0.40;0.10;;;;;;;20.32;66.69;99840.46;114011;1193;137041;-74
2021/09/17 02:10:35;;;;;;;0.40;0.10;;;;;;;20.31;66.63;99834.23;114297;1194;93065;-74
2021/09/17 02:13:13;;;;;;;0.40;0.10;;;;;;;20.30;66.40;99833.15;114373;1193;136574;-74
2021/09/17 02:15:44;;;;;;;0.40;0.10;;;;;;;20.23;66.50;99832.30;114565;1193;94362;-74
2021/09/17 02:18:11;;;;;;;0.40;0.10;;;;;;;20.10;66.31;99834.53;114302;1193;136449;-74
2021/09/17 02:20:37;;;;;;;0.40;0.10;;;;;;;20.02;66.75;99834.95;114697;1193;93860;-75
2021/09/17 02:23:04;;;;;;;0.40;0.10;;;;;;;19.93;66.87;99822.98;114510;1192;93940;-74
2021/09/17 02:25:32;;;;;;;0.40;0.10;;;;;;;19.94;66.92;99825.05;114653;1192;136812;-74
2021/09/17 02:27:59;;;;;;;0.40;0.10;;;;;;;19.93;66.90;99821.73;114421;1193;93964;-74
2021/09/17 02:30:29;;;;;;;0.40;0.10;;;;;;;19.92;66.87;99817.84;114330;1193;136502;-74
2021/09/17 02:32:55;;;;;;;0.40;0.10;;;;;;;19.86;66.83;99816.44;114372;1193;93901;-75
2021/09/17 02:35:22;;;;;;;0.40;0.10;;;;;;;19.87;66.79;99811.89;114355;1193;93532;-74
2021/09/17 02:37:49;;;;;;;0.40;0.10;;;;;;;19.81;66.93;99810.35;114498;1193;137847;-74
2021/09/17 02:40:17;;;;;;;0.40;0.10;;;;;;;19.85;67.03;99808.42;114382;1193;93945;-74
2021/09/17 02:42:45;;;;;;;0.40;0.10;;;;;;;19.91;67.01;99810.73;114420;1193;136243;-74
2021/09/17 02:45:14;;;;;;;0.40;0.10;;;;;;;19.85;66.91;99798.31;114608;1193;94171;-74
2021/09/17 02:47:46;;;;;;;0.40;0.10;;;;;;;19.77;67.05;99798.20;114539;1193;107634;-74
2021/09/17 02:50:19;;;;;;;0.40;0.10;;;;;;;19.78;66.98;99798.15;114313;1194;136629;-74
2021/09/17 02:52:46;;;;;;;0.40;0.10;;;;;;;19.81;67.00;99796.30;114387;1193;92476;-74
2021/09/17 02:55:14;;;;;;;0.40;0.10;;;;;;;19.82;66.68;99798.17;114429;1193;137506;-74
2021/09/17 02:57:42;;;;;;;0.40;0.10;;;;;;;19.77;66.90;99799.06;114555;1193;107105;-73
2021/09/17 03:00:37;;;;;;;0.40;0.10;;;;;;;19.67;67.08;99800.70;114335;1192;138169;-74
2021/09/17 03:03:04;;;;;;;0.40;0.10;;;;;;;19.70;66.85;99801.24;114600;1192;93149;-74
2021/09/17 03:05:31;;;;;;;0.40;0.10;;;;;;;19.67;66.80;99798.73;114488;1193;93996;-74
2021/09/17 03:07:58;;;;;;;0.40;0.10;;;;;;;19.59;66.71;99798.83;114361;1193;136138;-74
2021/09/17 03:10:25;;;;;;;0.40;0.10;;;;;;;19.56;66.63;99799.04;114485;1193;93875;-74
2021/09/17 03:12:54;;;;;;;0.40;0.10;;;;;;;19.58;66.83;99800.34;114442;1193;136102;-74
2021/09/17 03:15:21;;;;;;;0.40;0.10;;;;;;;19.58;66.87;99795.98;114439;1193;92107;-74
2021/09/17 03:17:48;;;;;;;0.40;0.10;;;;;;;19.64;66.86;99793.77;114515;1193;92740;-74
2021/09/17 03:20:15;;;;;;;0.40;0.10;;;;;;;19.66;66.68;99792.33;114366;1193;136672;-74
2021/09/17 03:22:44;;;;;;;0.40;0.10;;;;;;;19.66;66.31;99792.17;114867;1193;93440;-75
2021/09/17 03:25:12;;;;;;;0.40;0.10;;;;;;;19.62;66.52;99787.96;114480;1193;136865;-76
2021/09/17 03:27:38;;;;;;;0.40;0.10;;;;;;;19.58;66.66;99786.47;114540;1193;94002;-74
2021/09/17 03:30:06;;;;;;;0.40;0.10;;;;;;;19.56;66.64;99787.69;114388;1192;135964;-74
2021/09/17 03:32:33;;;;;;;0.40;0.10;;;;;;;19.60;66.76;99786.88;114496;1193;92361;-74
2021/09/17 03:35:00;;;;;;;0.40;0.10;;;;;;;19.63;66.47;99786.99;114715;1192;93521;-74
2021/09/17 03:37:27;;;;;;;0.40;0.10;;;;;;;19.66;66.51;99787.84;114267;1193;137691;-74
2021/09/17 03:39:54;;;;;;;0.40;0.10;;;;;;;19.62;66.30;99788.65;114676;1193;93965;-74
2021/09/17 03:42:21;;;;;;;0.40;0.10;;;;;;;19.59;66.22;99788.20;114426;1193;136577;-74
2021/09/17 03:44:47;;;;;;;0.40;0.10;;;;;;;19.49;66.48;99790.88;114528;1193;93937;-74
2021/09/17 03:47:16;;;;;;;0.40;0.10;;;;;;;19.45;66.56;99789.94;114789;1193;92802;-74
2021/09/17 03:49:42;;;;;;;0.40;0.10;;;;;;;19.43;66.60;99789.66;114483;1193;136592;-74
2021/09/17 03:52:09;;;;;;;0.40;0.10;;;;;;;19.47;66.68;99789.73;114495;1193;93977;-74
2021/09/17 03:54:36;;;;;;;0.40;0.10;;;;;;;19.52;66.58;99789.77;114391;1192;136742;-74
2021/09/17 03:57:03;;;;;;;0.40;0.10;;;;;;;19.56;66.28;99789.83;114541;1193;93897;-75
2021/09/17 03:59:30;;;;;;;0.40;0.10;;;;;;;19.55;66.16;99789.91;114482;1193;92084;-77
2021/09/17 04:02:00;;;;;;;0.40;0.10;;;;;;;19.45;66.30;99789.95;114413;1193;135974;-77
2021/09/17 04:04:29;;;;;;;0.40;0.10;;;;;;;19.43;66.49;99784.11;114620;1192;93853;-77
2021/09/17 04:06:58;;;;;;;0.40;0.10;;;;;;;19.38;66.56;99784.50;114436;1193;137705;-77
2021/09/17 04:09:28;;;;;;;0.40;0.10;;;;;;;19.40;66.70;99785.44;114556;1192;107445;-77
2021/09/17 04:11:55;;;;;;;0.40;0.10;;;;;;;19.49;66.77;99781.73;114559;1193;93478;-77
2021/09/17 04:14:22;;;;;;;0.40;0.10;;;;;;;19.53;66.28;99779.73;114466;1193;136832;-76
2021/09/17 04:16:50;;;;;;;0.40;0.10;;;;;;;19.52;65.90;99781.29;114546;1193;92658;-77
2021/09/17 04:19:17;;;;;;;0.40;0.10;;;;;;;19.52;66.06;99783.27;114387;1193;135987;-76
2021/09/17 04:21:45;;;;;;;0.40;0.10;;;;;;;19.45;65.84;99781.27;114537;1193;94461;-77
2021/09/17 04:24:15;;;;;;;0.40;0.10;;;;;;;19.37;65.93;99782.53;114455;1192;138151;-77
2021/09/17 04:27:25;;;;;;;0.40;0.10;;;;;;;19.31;66.12;99785.67;114564;1193;91991;-76
2021/09/17 04:29:56;;;;;;;0.40;0.10;;;;;;;19.29;66.20;99787.48;114871;1192;108166;-76
2021/09/17 04:32:27;;;;;;;0.40;0.10;;;;;;;19.24;66.08;99782.41;114343;1193;136268;-77
2021/09/17 04:34:54;;;;;;;0.40;0.10;;;;;;;19.17;66.25;99785.25;114507;1193;92077;-76
2021/09/17 04:37:21;;;;;;;0.40;0.10;;;;;;;19.16;66.24;99791.27;114680;1193;137049;-74
2021/09/17 04:39:59;;;;;;;0.40;0.10;;;;;;;19.18;66.24;99786.30;114596;1192;94012;-74
2021/09/17 04:42:26;;;;;;;0.40;0.10;;;;;;;19.17;66.29;99786.71;114288;1193;136375;-76
2021/09/17 04:44:53;;;;;;;0.40;0.10;;;;;;;19.20;66.55;99788.44;114779;1193;93828;-74
2021/09/17 04:47:20;;;;;;;0.40;0.10;;;;;;;19.28;66.40;99789.34;114477;1193;94591;-75
2021/09/17 04:49:58;;;;;;;0.40;0.10;;;;;;;19.32;66.14;99792.29;114327;1193;136745;-74
2021/09/17 04:52:42;;;;;;;0.40;0.10;;;;;;;19.25;65.97;99791.77;114508;1193;107589;-74
2021/09/17 04:55:11;;;;;;;0.40;0.10;;;;;;;19.15;65.99;99794.05;114302;1193;136177;-74
2021/09/17 04:57:38;;;;;;;0.40;0.10;;;;;;;19.12;66.22;99793.33;114488;1193;94076;-74
2021/09/17 05:00:08;;;;;;;0.40;0.10;;;;;;;19.06;66.19;99795.95;114312;1193;138397;-74
2021/09/17 05:02:35;;;;;;;0.40;0.10;;;;;;;19.02;65.98;99794.23;114385;1192;93861;-73
2021/09/17 05:05:03;;;;;;;0.40;0.10;;;;;;;18.94;66.16;99793.17;114457;1193;92611;-73
2021/09/17 05:07:33;;;;;;;0.40;0.10;;;;;;;18.99;66.21;99798.38;114302;1193;136665;-73
2021/09/17 05:10:01;;;;;;;0.40;0.10;;;;;;;18.87;65.71;99801.44;114490;1192;107595;-73
2021/09/17 05:12:28;;;;;;;0.40;0.10;;;;;;;18.68;66.09;99799.30;114661;1193;136088;-73
2021/09/17 05:14:55;;;;;;;0.40;0.10;;;;;;;18.64;66.28;99799.19;114257;1192;93848;-73
2021/09/17 05:17:22;;;;;;;0.40;0.10;;;;;;;18.73;66.48;99804.17;114284;1193;93958;-73
2021/09/17 05:19:49;;;;;;;0.40;0.10;;;;;;;18.81;66.56;99804.73;113765;1196;136519;-74
2021/09/17 05:22:19;;;;;;;0.40;0.10;;;;;;;18.86;66.61;99800.38;114266;1193;93937;-73
2021/09/17 05:24:45;;;;;;;0.40;0.10;;;;;;;18.86;66.18;99803.93;113908;1193;137665;-74
2021/09/17 05:27:14;;;;;;;0.40;0.10;;;;;;;18.85;66.33;99800.10;114224;1193;93896;-73
2021/09/17 05:29:59;;;;;;;0.40;0.10;;;;;;;18.95;66.29;99799.61;114291;1193;107477;-74
2021/09/17 05:32:26;;;;;;;0.40;0.10;;;;;;;19.01;66.34;99798.13;114087;1192;137733;-73
2021/09/17 05:34:53;;;;;;;0.40;0.10;;;;;;;19.00;66.16;99800.13;114396;1193;94122;-74
2021/09/17 05:37:20;;;;;;;0.40;0.10;;;;;;;18.99;66.17;99799.15;114038;1193;136648;-74
2021/09/17 05:39:49;;;;;;;0.40;0.10;;;;;;;18.95;66.22;99796.92;114224;1193;93024;-74
2021/09/17 05:42:15;;;;;;;0.40;0.10;;;;;;;18.95;66.05;99803.02;114070;1193;137496;-73
2021/09/17 05:44:42;;;;;;;0.40;0.10;;;;;;;18.90;66.15;99808.41;114444;1192;93920;-73
2021/09/17 05:47:12;;;;;;;0.40;0.10;;;;;;;18.84;66.23;99805.71;114399;1192;93886;-74
2021/09/17 05:49:38;;;;;;;0.40;0.10;;;;;;;18.83;66.06;99807.27;114077;1193;137201;-73
2021/09/17 05:52:17;;;;;;;0.40;0.10;;;;;;;18.78;65.85;99805.48;114141;1193;93909;-73
2021/09/17 05:54:46;;;;;;;0.40;0.10;;;;;;;18.67;65.99;99802.27;113933;1192;137487;-74
2021/09/17 05:57:14;;;;;;;0.40;0.10;;;;;;;18.67;66.26;99800.13;114211;1193;93839;-73
2021/09/17 05:59:46;;;;;;;0.40;0.10;;;;;;;18.68;65.93;99806.69;114260;1193;94383;-73
2021/09/17 06:02:13;;;;;;;0.40;0.10;;;;;;;18.66;65.93;99804.99;114004;1192;137703;-72
2021/09/17 06:04:47;;;;;;;0.40;0.10;;;;;;;18.56;65.87;99806.23;114216;1193;94023;-74
2021/09/17 06:07:13;;;;;;;0.40;0.10;;;;;;;18.58;65.86;99809.89;114331;1192;136507;-73
2021/09/17 06:09:47;;;;;;;0.40;0.10;;;;;;;18.56;66.07;99808.42;114507;1192;93499;-73
2021/09/17 06:12:20;;;;;;;0.40;0.10;;;;;;;18.61;66.30;99810.73;113900;1193;136357;-73
2021/09/17 06:14:52;;;;;;;0.40;0.10;;;;;;;18.67;66.21;99813.95;114016;1193;93883;-72
2021/09/17 06:17:19;;;;;;;0.40;0.10;;;;;;;18.66;65.94;99813.14;114410;1192;93947;-73
2021/09/17 06:20:00;;;;;;;0.40;0.10;;;;;;;18.64;66.20;99814.89;114334;1193;136476;-74
2021/09/17 06:22:27;;;;;;;0.40;0.10;;;;;;;18.64;65.89;99814.71;114027;1193;107604;-73
2021/09/17 06:24:54;;;;;;;0.40;0.10;;;;;;;18.66;65.94;99814.90;113889;1193;137337;-73
2021/09/17 06:27:21;;;;;;;0.40;0.10;;;;;;;18.69;65.95;99813.27;114176;1193;93982;-73
2021/09/17 06:29:56;;;;;;;0.40;0.10;;;;;;;18.68;65.99;99812.45;114052;1193;93872;-74
2021/09/17 06:32:29;;;;;;;0.40;0.10;;;;;;;18.63;66.31;99806.86;114060;1193;136832;-74
2021/09/17 06:34:58;;;;;;;0.40;0.10;;;;;;;18.68;66.17;99807.95;114079;1193;94024;-73
2021/09/17 06:37:25;;;;;;;0.40;0.10;;;;;;;18.76;66.37;99805.02;114309;1192;137133;-74
2021/09/17 06:39:52;;;;;;;0.40;0.10;;;;;;;18.80;65.76;99804.77;113940;1193;93697;-73
2021/09/17 06:42:19;;;;;;;0.40;0.10;;;;;;;18.71;65.36;99803.03;113892;1193;136692;-74
2021/09/17 06:44:46;;;;;;;0.40;0.10;;;;;;;18.63;65.97;99803.77;114110;1193;93985;-73
2021/09/17 06:47:22;;;;;;;0.40;0.10;;;;;;;18.52;65.94;99800.95;114459;1192;93811;-74
2021/09/17 06:50:05;;;;;;;0.40;0.10;;;;;;;18.53;66.16;99799.04;114092;1192;137408;-73
2021/09/17 06:52:55;;;;;;;0.40;0.10;;;;;;;18.53;65.67;99800.14;114484;1193;107086;-74
2021/09/17 06:55:29;;;;;;;0.40;0.10;;;;;;;18.43;65.84;99801.23;113918;1193;136317;-72
2021/09/17 06:58:04;;;;;;;0.40;0.10;;;;;;;18.38;66.09;99804.43;114025;1192;93876;-76
2021/09/17 07:00:35;;;;;;;0.40;0.10;;;;;;;18.47;66.11;99800.76;113816;1192;137030;-74
2021/09/17 07:03:07;;;;;;;0.40;0.10;;;;;;;18.58;65.94;99798.02;114131;1193;106250;-74
2021/09/17 07:05:35;;;;;;;0.40;0.10;;;;;;;18.64;65.53;99799.21;114612;1192;93353;-74
2021/09/17 07:08:07;;;;;;;0.40;0.10;;;;;;;18.62;65.61;99801.87;113887;1193;136844;-73
2021/09/17 07:10:36;;;;;;;0.40;0.10;;;;;;;18.74;65.99;99796.38;114523;1192;106683;-73
2021/09/17 07:13:04;;;;;;;0.40;0.10;;;;;;;18.84;65.85;99793.35;113734;1194;136736;-74
2021/09/17 07:15:31;;;;;;;0.40;0.10;;;;;;;18.91;65.96;99788.73;114058;1192;93919;-73
2021/09/17 07:17:58;;;;;;;0.40;0.10;;;;;;;18.90;65.08;99794.02;114527;1192;94007;-73
2021/09/17 07:20:38;;;;;;;0.40;0.10;;;;;;;18.85;64.94;99792.53;114439;1192;135676;-74
2021/09/17 07:23:06;;;;;;;0.40;0.10;;;;;;;18.82;65.14;99794.69;114126;1193;107004;-73
2021/09/17 07:25:34;;;;;;;0.40;0.10;;;;;;;18.83;65.21;99795.16;113941;1192;137907;-73
2021/09/17 07:28:03;;;;;;;0.40;0.10;;;;;;;18.89;65.16;99788.86;114470;1192;93855;-73
2021/09/17 07:30:34;;;;;;;0.40;0.10;;;;;;;18.93;65.06;99787.34;113995;1193;137118;-73
2021/09/17 07:33:03;;;;;;;0.40;0.10;;;;;;;18.93;64.84;99788.05;113955;1192;108146;-73
2021/09/17 07:35:33;;;;;;;0.40;0.10;;;;;;;18.92;64.75;99790.45;114013;1193;93905;-73
2021/09/17 07:38:00;;;;;;;0.40;0.10;;;;;;;18.87;64.63;99790.05;113855;1193;136152;-73
2021/09/17 07:40:32;;;;;;;0.40;0.10;;;;;;;18.84;64.98;99792.08;113909;1193;93993;-74
2021/09/17 07:43:05;;;;;;;0.40;0.10;;;;;;;18.85;65.12;99788.90;114320;1192;137293;-73
2021/09/17 07:45:33;;;;;;;0.40;0.10;;;;;;;18.92;65.25;99790.27;114424;1192;93970;-74
2021/09/17 07:48:05;;;;;;;0.40;0.10;;;;;;;18.93;65.44;99792.75;114467;1192;93837;-73
2021/09/17 07:50:32;;;;;;;0.40;0.10;;;;;;;18.95;65.28;99784.52;114352;1192;137542;-75
2021/09/17 07:53:00;;;;;;;0.40;0.10;;;;;;;19.01;65.47;99778.48;113990;1192;94422;-74
2021/09/17 07:55:32;;;;;;;0.40;0.10;;;;;;;19.10;65.31;99782.55;114286;1192;136486;-75
2021/09/17 07:57:59;;;;;;;0.40;0.10;;;;;;;19.20;65.11;99787.23;114469;1192;93752;-75
2021/09/17 08:00:26;;;;;;;0.40;0.10;;;;;;;19.21;64.99;99791.10;113914;1192;137149;-74
2021/09/17 08:02:56;;;;;;;0.40;0.10;;;;;;;19.13;65.87;99786.99;114195;1192;94015;-74
2021/09/17 08:05:24;;;;;;;0.40;0.10;;;;;;;19.13;65.25;99785.89;113985;1193;93980;-74
2021/09/17 08:07:56;;;;;;;0.40;0.10;;;;;;;19.13;65.26;99783.39;113880;1193;137225;-74
2021/09/17 08:10:23;;;;;;;0.40;0.10;;;;;;;19.17;64.94;99788.14;114118;1193;108097;-74
2021/09/17 08:12:58;;;;;;;0.40;0.10;;;;;;;19.06;64.82;99787.13;114163;1192;136143;-74
2021/09/17 08:15:35;;;;;;;0.40;0.10;;;;;;;19.06;65.36;99787.13;114070;1193;93453;-75
2021/09/17 08:18:04;;;;;;;0.40;0.10;;;;;;;19.10;65.08;99784.48;113987;1193;93848;-77
2021/09/17 08:20:34;;;;;;;0.40;0.10;;;;;;;19.06;65.10;99785.72;114071;1192;135948;-76
2021/09/17 08:23:01;;;;;;;0.40;0.10;;;;;;;19.09;65.45;99786.70;114207;1193;108346;-77
2021/09/17 08:25:31;;;;;;;0.40;0.10;;;;;;;19.13;65.30;99783.27;114228;1192;136418;-76
2021/09/17 08:28:02;;;;;;;0.40;0.10;;;;;;;19.03;64.95;99784.87;114059;1193;93537;-73
2021/09/17 08:30:29;;;;;;;0.40;0.10;;;;;;;19.04;65.38;99788.18;114004;1193;136255;-74
2021/09/17 08:32:55;;;;;;;0.40;0.10;;;;;;;18.89;65.07;99785.42;114105;1192;94322;-74
2021/09/17 08:35:22;;;;;;;0.40;0.10;;;;;;;18.87;65.33;99779.85;114025;1193;92772;-74
2021/09/17 08:37:49;;;;;;;0.40;0.10;;;;;;;18.75;65.62;99784.05;113857;1193;137482;-74
2021/09/17 08:40:16;;;;;;;0.40;0.10;;;;;;;18.76;65.66;99786.21;114190;1193;94045;-74
2021/09/17 08:42:44;;;;;;;0.40;0.10;;;;;;;18.83;66.02;99777.96;114074;1193;136290;-74
2021/09/17 08:45:13;;;;;;;0.40;0.10;;;;;;;18.89;65.69;99777.73;114304;1192;94204;-74
2021/09/17 08:47:40;;;;;;;0.40;0.10;;;;;;;18.89;65.86;99777.52;114123;1193;94304;-74
2021/09/17 08:50:10;;;;;;;0.40;0.10;;;;;;;19.05;65.84;99777.28;114046;1193;137737;-75
2021/09/17 08:52:37;;;;;;;0.40;0.10;;;;;;;19.13;65.47;99777.45;114460;1192;108779;-74
2021/09/17 08:55:10;;;;;;;0.40;0.10;;;;;;;19.10;64.95;99776.05;114352;1192;135944;-73
2021/09/17 08:57:37;;;;;;;0.40;0.10;;;;;;;18.96;65.09;99775.80;114505;1192;93839;-74
2021/09/17 09:00:05;;;;;;;0.40;0.10;;;;;;;18.95;65.46;99780.38;113935;1193;94034;-74
2021/09/17 09:02:32;;;;;;;0.40;0.10;;;;;;;19.09;65.79;99779.56;113860;1193;136438;-73
2021/09/17 09:05:07;;;;;;;0.40;0.10;;;;;;;19.05;65.19;99780.89;114010;1193;94571;-74
2021/09/17 09:07:36;;;;;;;0.40;0.10;;;;;;;19.05;65.11;99784.53;114159;1192;136673;-73
2021/09/17 09:10:14;;;;;;;0.40;0.10;;;;;;;18.94;65.28;99782.39;114201;1193;109463;-74
2021/09/17 09:12:49;;;;;;;0.40;0.10;;;;;;;19.08;65.66;99781.96;113888;1193;137068;-75
2021/09/17 09:15:29;;;;;;;0.40;0.10;;;;;;;19.14;65.32;99782.27;113962;1193;93931;-73
2021/09/17 09:18:12;;;;;;;0.40;0.10;;;;;;;19.12;65.21;99786.17;114010;1192;94376;-73
2021/09/17 09:20:46;;;;;;;0.40;0.10;;;;;;;19.10;65.51;99784.69;114106;1192;136863;-73
2021/09/17 09:23:19;;;;;;;0.40;0.10;;;;;;;19.14;65.59;99785.83;114330;1192;106770;-74
2021/09/17 09:26:01;;;;;;;0.40;0.10;;;;;;;19.09;65.21;99788.00;114321;1192;137749;-74
2021/09/17 09:28:29;;;;;;;0.40;0.10;;;;;;;19.07;65.48;99783.64;113945;1193;93876;-74
2021/09/17 09:30:58;;;;;;;0.40;0.10;;;;;;;19.05;65.56;99780.70;114213;1193;137574;-74
2021/09/17 09:33:32;;;;;;;0.40;0.10;;;;;;;19.11;65.51;99779.23;113931;1193;107294;-73
2021/09/17 09:36:05;;;;;;;0.40;0.10;;;;;;;19.22;65.63;99778.08;113935;1192;93862;-75
2021/09/17 09:38:40;;;;;;;0.40;0.10;;;;;;;19.26;65.39;99777.96;114031;1192;136878;-72
2021/09/17 09:41:17;;;;;;;0.40;0.10;;;;;;;19.16;64.88;99780.12;114310;1192;107275;-73
2021/09/17 09:43:54;;;;;;;0.40;0.10;;;;;;;19.20;65.52;99780.77;114279;1192;137478;-73
2021/09/17 09:46:31;;;;;;;0.40;0.10;;;;;;;19.23;65.25;99783.04;114323;1192;93855;-73
2021/09/17 09:48:58;;;;;;;0.40;0.10;;;;;;;19.25;64.92;99781.67;114235;1193;137531;-75
2021/09/17 09:51:32;;;;;;;0.40;0.10;;;;;;;19.21;65.11;99782.98;114211;1192;93880;-73
2021/09/17 09:54:00;;;;;;;0.40;0.10;;;;;;;19.19;65.02;99784.19;114391;1192;108063;-73
2021/09/17 09:56:30;;;;;;;0.40;0.10;;;;;;;19.18;65.28;99787.00;114058;1193;137855;-73
2021/09/17 09:59:02;;;;;;;0.40;0.10;;;;;;;19.22;64.97;99787.59;114528;1192;93887;-73
2021/09/17 10:01:29;;;;;;;0.40;0.10;;;;;;;19.14;65.01;99781.38;114093;1192;137016;-73
2021/09/17 10:03:59;;;;;;;0.40;0.10;;;;;;;19.28;65.58;99782.34;113921;1193;108103;-73
2021/09/17 10:06:27;;;;;;;0.40;0.10;;;;;;;19.43;64.93;99782.00;113731;1193;137994;-73
2021/09/17 10:08:57;;;;;;;0.40;0.10;;;;;;;19.47;65.19;99779.47;113959;1192;94017;-74
2021/09/17 10:11:24;;;;;;;0.40;0.10;;;;;;;19.54;65.43;99780.06;113848;1193;107674;-74
2021/09/17 10:13:56;;;;;;;0.40;0.10;;;;;;;19.65;65.25;99778.20;114092;1192;137295;-74
2021/09/17 10:16:30;;;;;;;0.40;0.10;;;;;;;19.88;65.01;99783.34;113946;1193;93448;-74
2021/09/17 10:18:59;;;;;;;0.40;0.10;;;;;;;20.11;64.51;99784.17;114228;1192;136431;-74
2021/09/17 10:21:44;;;;;;;0.40;0.10;;;;;;;20.24;64.29;99780.86;113940;1192;109489;-74
2021/09/17 10:24:26;;;;;;;0.40;0.10;;;;;;;20.25;64.06;99780.01;114217;1192;108199;-73
2021/09/17 10:27:07;;;;;;;0.40;0.10;;;;;;;20.34;63.92;99774.82;114173;1193;136737;-74
2021/09/17 10:29:37;;;;;;;0.40;0.10;;;;;;;20.46;63.72;99774.29;113777;1193;94479;-74
2021/09/17 10:32:32;;;;;;;0.40;0.10;;;;;;;20.57;63.04;99769.30;113900;1192;135838;-74
2021/09/17 10:35:13;;;;;;;0.40;0.10;;;;;;;20.72;62.72;99770.50;114117;1193;107205;-73
2021/09/17 10:37:55;;;;;;;0.40;0.10;;;;;;;20.79;62.19;99767.78;113731;1193;137416;-73
2021/09/17 10:40:44;;;;;;;0.40;0.10;;;;;;;20.92;62.79;99762.23;114283;1192;93852;-74
2021/09/17 10:43:10;;;;;;;0.40;0.10;;;;;;;20.88;62.12;99760.92;114184;1192;137853;-75
2021/09/17 10:45:41;;;;;;;0.40;0.10;;;;;;;20.90;61.83;99760.77;114266;1192;94299;-75
2021/09/17 10:48:11;;;;;;;0.40;0.10;;;;;;;20.77;61.83;99762.66;114292;1192;93862;-73
2021/09/17 10:50:48;;;;;;;0.40;0.10;;;;;;;20.78;62.30;99767.85;114129;1192;137577;-73
2021/09/17 10:53:41;;;;;;;0.40;0.10;;;;;;;20.80;62.52;99769.33;114207;1192;107672;-73
2021/09/17 10:56:15;;;;;;;0.40;0.10;;;;;;;20.79;62.37;99771.74;113942;1192;137127;-74
2021/09/17 10:59:10;;;;;;;0.40;0.10;;;;;;;20.84;62.92;99765.02;113711;1195;94409;-74
2021/09/17 11:01:52;;;;;;;0.40;0.10;;;;;;;20.83;63.01;99760.00;113698;1193;136720;-73
2021/09/17 11:04:21;;;;;;;0.40;0.10;;;;;;;20.74;61.83;99758.58;113890;1193;108596;-74
2021/09/17 11:06:49;;;;;;;0.40;0.10;;;;;;;20.64;62.09;99756.98;113707;1193;136704;-74
2021/09/17 11:09:39;;;;;;;0.40;0.10;;;;;;;20.59;62.21;99760.46;113851;1193;93868;-72
2021/09/17 11:12:16;;;;;;;0.40;0.10;;;;;;;20.58;62.11;99761.85;113800;1193;94009;-74
2021/09/17 11:14:47;;;;;;;0.40;0.10;;;;;;;20.64;62.27;99759.48;113718;1193;137566;-74
2021/09/17 11:17:14;;;;;;;0.40;0.10;;;;;;;20.75;61.98;99757.11;113836;1193;108553;-73
2021/09/17 11:19:41;;;;;;;0.40;0.10;;;;;;;20.81;61.48;99754.05;113749;1192;137178;-72
2021/09/17 11:22:09;;;;;;;0.40;0.10;;;;;;;20.75;60.58;99754.73;113857;1192;94085;-73
2021/09/17 11:24:38;;;;;;;0.40;0.10;;;;;;;20.75;60.61;99754.41;113758;1192;136500;-74
2021/09/17 11:27:05;;;;;;;0.40;0.10;;;;;;;20.77;60.71;99750.05;113829;1193;108628;-75
2021/09/17 11:29:35;;;;;;;0.40;0.10;;;;;;;20.86;60.39;99742.45;113976;1192;94105;-73
2021/09/17 11:32:03;;;;;;;0.40;0.10;;;;;;;20.92;60.56;99740.05;113950;1193;136678;-75
2021/09/17 11:34:32;;;;;;;0.40;0.10;;;;;;;21.00;60.92;99735.25;113838;1193;108047;-73
2021/09/17 11:37:01;;;;;;;0.40;0.10;;;;;;;21.04;60.32;99737.94;113706;1193;138277;-73